KMDT Airport Information

Runway Information
Runway 13 Length 10001 ft width 200 ft
Elevation 308 ft Threshold 993 ft Heading 117
Runway 31 Length 10001 ft Width 200 ft
Elevation 308 ft Threshold 994 ft Heading 297
Airport Frequencies
Type A/D Name APP/DEP Frequency 118.25 MHZ
Type ATIS Name ATIS Frequency 118.8 MHZ
Type GND Name GND Frequency 121.7 MHZ
Type OPS Name ANG OPS Frequency 39.51 MHZ
Type TWR Name TWR Frequency 124.8 MHZ
Airport Navaids
Type VORTAC Name Harrisburg Frequency 112500 KHZ
Type NDB Name Enola Frequency 204 KHZ
Airport Weather Information & NOTAM
ADDS - METARS form results

(2356 UTC 21 February 2020)
Data provider http://aviationweather.gov/metar/data/
 
Forecast for: KMDT (MIDDLETOWN , PA, US)
Text: KMDT 212323Z 2200/2224 29005KT P6SM SKC
Forecast period: 0000 to 1800 UTC 22 February 2020
Forecast type: FROM: standard forecast or significant change
Winds: from the WNW (290 degrees) at 6 MPH (5 knots; 2.6 m/s)
Visibility: 6 or more miles 10+ km)
Clouds: clear skies
Weather: no significant weather forecast for this period
Text: FM221800 27009KT P6SM SKC
Forecast period: 1800 UTC 22 February 2020 to 0000 UTC 23 February 2020
Forecast type: FROM: standard forecast or significant change
Winds: from the W (270 degrees) at 10 MPH (9 knots; 4.6 m/s)
Visibility: 6 or more miles 10+ km)
Clouds: clear skies
Weather: no significant weather forecast for this period